Time;durP1;ratioP1;P1;durP2;ratioP2;P2;SDS_P1;SDS_P2;PMS_P1;PMS_P2;Temp;Humidity;BMP_temperature;BMP_pressure;BME280_temperature;BME280_humidity;BME280_pressure;Samples;Min_cycle;Max_cycle;Signal;HPM_P1;HPM_P2
2021/05/26 00:01:45;;;;;;;0.30;0.28;;;;;;;19.30;47.53;100367.19;4924960;29;20031;-77
2021/05/26 00:04:12;;;;;;;0.38;0.15;;;;;;;19.31;47.74;100355.53;4914633;29;20043;-76
2021/05/26 00:06:37;;;;;;;0.30;0.20;;;;;;;19.30;47.92;100360.03;4930485;29;20405;-76
2021/05/26 00:09:03;;;;;;;0.10;0.10;;;;;;;19.31;48.11;100355.53;4930819;29;20028;-76
2021/05/26 00:11:28;;;;;;;0.57;0.20;;;;;;;19.32;47.71;100351.91;4928750;29;20035;-76
2021/05/26 00:13:54;;;;;;;0.30;0.10;;;;;;;19.30;47.89;100345.84;4919155;29;20051;-76
2021/05/26 00:16:20;;;;;;;0.22;0.13;;;;;;;19.30;47.62;100346.69;4919218;29;20035;-76
2021/05/26 00:18:46;;;;;;;0.40;0.20;;;;;;;19.30;47.60;100332.53;4929808;29;20044;-76
2021/05/26 00:21:11;;;;;;;0.47;0.20;;;;;;;19.30;48.01;100340.53;4931707;29;20170;-76
2021/05/26 00:23:37;;;;;;;0.20;0.20;;;;;;;19.30;47.96;100346.69;4919139;29;20479;-76
2021/05/26 00:26:03;;;;;;;0.10;0.10;;;;;;;19.31;48.08;100344.88;4931461;29;20487;-76
2021/05/26 00:28:28;;;;;;;0.20;0.20;;;;;;;19.27;47.48;100336.31;4913245;29;20179;-76
2021/05/26 00:30:55;;;;;;;0.38;0.20;;;;;;;19.30;47.66;100338.69;4915361;29;20387;-76
2021/05/26 00:33:21;;;;;;;0.15;0.13;;;;;;;19.30;47.84;100341.38;4929570;29;20118;-77
2021/05/26 00:35:47;;;;;;;0.22;0.20;;;;;;;19.30;48.04;100327.22;4914189;29;20546;-76
2021/05/26 00:38:13;;;;;;;0.52;0.30;;;;;;;19.29;47.54;100330.84;4931301;29;20076;-76
2021/05/26 00:40:39;;;;;;;0.20;0.20;;;;;;;19.30;47.99;100335.19;4928492;29;20023;-77
2021/05/26 00:43:05;;;;;;;0.32;0.30;;;;;;;19.27;47.54;100325.66;4931016;29;20467;-77
2021/05/26 00:45:31;;;;;;;0.65;0.20;;;;;;;19.26;47.73;100315.97;4930922;29;20033;-76
2021/05/26 00:47:57;;;;;;;0.17;0.15;;;;;;;19.26;47.70;100323.97;4930280;29;20087;-77
2021/05/26 00:50:26;;;;;;;0.40;0.10;;;;;;;19.30;47.51;100330.72;4929922;29;20031;-76
2021/05/26 00:52:52;;;;;;;;;;;;;;;19.28;47.64;100324.69;4930832;29;20114;-76
2021/05/26 00:55:20;;;;;;;0.75;0.20;;;;;;;19.27;48.01;100314.16;4925388;29;19950;-77
2021/05/26 00:57:47;;;;;;;0.20;0.17;;;;;;;19.29;48.14;100317.53;4917390;29;20428;-76
2021/05/26 01:00:14;;;;;;;0.65;0.20;;;;;;;19.28;47.96;100315.84;4916477;29;20042;-76
2021/05/26 01:02:39;;;;;;;0.45;0.20;;;;;;;19.30;47.64;100316.53;4930483;29;20499;-76
2021/05/26 01:05:07;;;;;;;0.20;0.20;;;;;;;19.29;47.58;100310.38;4924980;29;20094;-76
2021/05/26 01:07:32;;;;;;;0.13;0.10;;;;;;;19.25;47.53;100306.31;4897232;29;20023;-77
2021/05/26 01:09:58;;;;;;;0.20;0.20;;;;;;;19.29;47.63;100314.88;4922274;29;20034;-77
2021/05/26 01:12:23;;;;;;;0.20;0.20;;;;;;;19.27;47.57;100307.00;4916993;29;20023;-76
2021/05/26 01:14:49;;;;;;;0.15;0.15;;;;;;;19.28;47.76;100310.50;4926746;29;20040;-76
2021/05/26 01:17:14;;;;;;;0.30;0.30;;;;;;;19.29;47.59;100309.53;4919922;29;20084;-76
2021/05/26 01:19:39;;;;;;;0.73;0.20;;;;;;;19.26;47.48;100301.81;4926925;29;20016;-77
2021/05/26 01:22:06;;;;;;;0.10;0.10;;;;;;;19.29;47.62;100313.03;4918233;29;20107;-76
2021/05/26 01:24:31;;;;;;;0.20;0.10;;;;;;;19.28;47.77;100311.38;4929695;29;20059;-77
2021/05/26 01:26:57;;;;;;;0.65;0.10;;;;;;;19.26;47.90;100304.47;4919775;29;20063;-76
2021/05/26 01:29:22;;;;;;;0.22;0.10;;;;;;;19.27;47.86;100304.34;4911749;29;20024;-77
2021/05/26 01:31:47;;;;;;;0.40;0.10;;;;;;;19.23;48.13;100294.09;4918869;29;20035;-77
2021/05/26 01:34:13;;;;;;;0.17;0.10;;;;;;;19.24;47.98;100299.28;4929693;29;20028;-77
2021/05/26 01:36:41;;;;;;;0.25;0.20;;;;;;;19.26;48.01;100296.50;4911193;29;20065;-77
2021/05/26 01:39:07;;;;;;;0.13;0.13;;;;;;;19.27;48.01;100295.50;4930588;29;20046;-77
2021/05/26 01:41:32;;;;;;;0.47;0.20;;;;;;;19.24;47.94;100293.94;4929440;29;20027;-77
2021/05/26 01:43:57;;;;;;;0.47;0.20;;;;;;;19.23;47.56;100289.59;4930050;29;20074;-77
2021/05/26 01:46:23;;;;;;;0.10;0.10;;;;;;;19.26;47.81;100292.00;4927718;29;20447;-77
2021/05/26 01:48:49;;;;;;;0.17;0.17;;;;;;;19.27;47.73;100290.19;4906614;29;20387;-77
2021/05/26 01:51:15;;;;;;;0.30;0.30;;;;;;;19.27;48.10;100295.50;4917957;29;20487;-77
2021/05/26 01:53:41;;;;;;;0.30;0.20;;;;;;;19.24;47.95;100287.78;4912325;29;20027;-77
2021/05/26 01:56:23;;;;;;;0.50;0.20;;;;;;;19.24;47.98;100288.63;4926328;29;20031;-77
2021/05/26 01:58:50;;;;;;;0.38;0.20;;;;;;;19.23;47.80;100289.59;4924905;29;20079;-77
2021/05/26 02:01:19;;;;;;;0.60;0.30;;;;;;;19.22;48.06;100279.94;4921761;29;20031;-77
2021/05/26 02:03:45;;;;;;;0.30;0.17;;;;;;;19.24;47.78;100290.44;4929038;29;20479;-78
2021/05/26 02:06:14;;;;;;;0.15;0.15;;;;;;;19.25;48.18;100286.78;4929459;29;20322;-77
2021/05/26 02:08:40;;;;;;;0.10;0.10;;;;;;;19.23;48.06;100288.78;4902520;29;20056;-76
2021/05/26 02:13:50;;;;;;;0.20;0.20;;;;;;;19.24;48.30;100293.13;4929915;29;20054;-77
2021/05/26 02:16:16;;;;;;;0.45;0.30;;;;;;;19.23;47.73;100286.94;4907356;29;20023;-77
2021/05/26 02:18:41;;;;;;;0.43;0.20;;;;;;;19.22;48.02;100279.94;4926805;29;20023;-76
2021/05/26 02:21:06;;;;;;;0.55;0.20;;;;;;;19.24;48.19;100282.44;4908853;29;20036;-77
2021/05/26 02:23:31;;;;;;;0.30;0.30;;;;;;;19.23;47.82;100284.28;4921538;29;20054;-77
2021/05/26 02:25:57;;;;;;;0.73;0.20;;;;;;;19.23;48.08;100280.78;4927505;29;20142;-76
2021/05/26 02:28:22;;;;;;;0.30;0.20;;;;;;;19.23;48.21;100280.78;4925048;29;20509;-77
2021/05/26 02:30:48;;;;;;;0.20;0.20;;;;;;;19.22;48.23;100282.59;4913998;29;20031;-76
2021/05/26 02:33:13;;;;;;;0.30;0.30;;;;;;;19.20;48.23;100276.56;4920760;29;20068;-77
2021/05/26 02:35:38;;;;;;;0.20;0.10;;;;;;;19.20;48.24;100276.56;4927278;29;20024;-77
2021/05/26 02:38:04;;;;;;;0.25;0.20;;;;;;;19.21;48.21;100278.25;4910728;29;20032;-77
2021/05/26 02:40:33;;;;;;;0.10;0.10;;;;;;;19.20;48.39;100270.41;4919086;29;20028;-77
2021/05/26 02:42:58;;;;;;;0.20;0.20;;;;;;;19.19;48.10;100269.56;4912591;29;20107;-77
2021/05/26 02:45:23;;;;;;;0.20;0.20;;;;;;;19.21;48.42;100275.56;4928724;29;20195;-76
2021/05/26 02:47:49;;;;;;;0.82;0.30;;;;;;;19.20;47.89;100270.41;4929964;29;20051;-77
2021/05/26 02:50:17;;;;;;;0.13;0.10;;;;;;;19.23;47.65;100270.13;4926873;29;20031;-77
2021/05/26 02:52:43;;;;;;;0.38;0.10;;;;;;;19.23;47.90;100270.13;4929171;29;20613;-76
2021/05/26 02:55:10;;;;;;;0.52;0.20;;;;;;;19.23;47.89;100264.78;4926302;29;20428;-77
2021/05/26 02:57:35;;;;;;;0.45;0.20;;;;;;;19.20;47.81;100273.91;4929397;29;20028;-77
2021/05/26 03:00:00;;;;;;;0.43;0.20;;;;;;;19.22;48.06;100266.63;4926790;29;20032;-77
2021/05/26 03:02:26;;;;;;;0.10;0.10;;;;;;;19.22;48.17;100273.78;4928274;29;20534;-76
2021/05/26 03:04:51;;;;;;;0.40;0.10;;;;;;;19.23;47.90;100272.78;4929467;29;20043;-76
2021/05/26 03:07:17;;;;;;;0.20;0.20;;;;;;;19.24;47.95;100271.78;4929082;29;20144;-77
2021/05/26 03:09:42;;;;;;;0.10;0.10;;;;;;;19.23;47.72;100273.63;4929756;29;20023;-77
2021/05/26 03:12:08;;;;;;;0.10;0.10;;;;;;;19.25;48.61;100271.69;4930595;29;20042;-77
2021/05/26 03:14:33;;;;;;;0.57;0.20;;;;;;;19.26;48.05;100275.19;4922276;29;20056;-77
2021/05/26 03:16:59;;;;;;;0.55;0.25;;;;;;;19.23;47.94;100264.78;4925647;29;20035;-78
2021/05/26 03:19:24;;;;;;;0.15;0.15;;;;;;;19.22;47.91;100271.94;4931667;29;20028;-77
2021/05/26 03:21:49;;;;;;;0.25;0.20;;;;;;;19.22;47.65;100269.28;4927688;29;20079;-77
2021/05/26 03:24:15;;;;;;;0.20;0.20;;;;;;;19.25;47.69;100270.81;4918578;29;20035;-77
2021/05/26 03:26:40;;;;;;;0.20;0.20;;;;;;;19.24;47.93;100269.13;4931665;29;20494;-76
2021/05/26 03:29:05;;;;;;;0.20;0.20;;;;;;;19.26;47.86;100267.19;4932341;29;20483;-76
2021/05/26 03:31:31;;;;;;;0.35;0.20;;;;;;;19.23;48.02;100265.63;4915835;29;20036;-76
2021/05/26 03:33:56;;;;;;;0.43;0.15;;;;;;;19.24;48.17;100269.13;4927838;29;20031;-77
2021/05/26 03:36:22;;;;;;;0.47;0.13;;;;;;;19.23;47.94;100262.97;4922921;29;20435;-77
2021/05/26 03:38:47;;;;;;;0.35;0.20;;;;;;;19.24;48.02;100261.13;4914841;29;20027;-77
2021/05/26 03:41:13;;;;;;;0.30;0.30;;;;;;;19.24;48.17;100261.97;4929838;29;20036;-77
2021/05/26 03:43:38;;;;;;;0.32;0.20;;;;;;;19.23;48.04;100256.81;4929272;29;20031;-77
2021/05/26 03:46:03;;;;;;;0.22;0.20;;;;;;;19.20;47.86;100247.25;4913480;29;20051;-77
2021/05/26 03:48:29;;;;;;;0.15;0.15;;;;;;;19.22;47.99;100249.78;4924591;29;20497;-77
2021/05/26 03:50:54;;;;;;;0.13;0.10;;;;;;;19.21;48.30;100243.59;4931696;29;20109;-77
2021/05/26 03:53:19;;;;;;;0.65;0.30;;;;;;;19.22;48.04;100247.97;4931547;29;20035;-77
2021/05/26 03:55:45;;;;;;;0.20;0.20;;;;;;;19.24;48.22;100247.81;4931100;29;20024;-76
2021/05/26 03:58:11;;;;;;;0.30;0.15;;;;;;;19.21;47.60;100235.59;4930614;29;20082;-77
2021/05/26 04:00:36;;;;;;;0.32;0.30;;;;;;;19.21;48.08;100243.59;4931604;29;20107;-77
2021/05/26 04:03:02;;;;;;;0.35;0.28;;;;;;;19.21;48.16;100248.94;4923951;29;20106;-77
2021/05/26 04:05:27;;;;;;;0.20;0.20;;;;;;;19.22;47.93;100242.63;4931504;29;20116;-77
2021/05/26 04:07:52;;;;;;;0.75;0.30;;;;;;;19.22;47.93;100247.97;4931524;29;20090;-76
2021/05/26 04:10:17;;;;;;;0.10;0.10;;;;;;;19.22;48.03;100245.31;4928358;29;20031;-81
2021/05/26 04:12:43;;;;;;;0.30;0.20;;;;;;;19.22;48.07;100250.63;4931067;29;20028;-81
2021/05/26 04:15:09;;;;;;;0.20;0.20;;;;;;;19.22;48.00;100255.97;4915764;29;20407;-79
2021/05/26 04:17:34;;;;;;;0.63;0.30;;;;;;;19.21;47.74;100248.09;4933074;29;20028;-82
2021/05/26 04:20:04;;;;;;;0.35;0.20;;;;;;;19.22;48.17;100253.31;4919464;29;20353;-80
2021/05/26 04:22:30;;;;;;;0.20;0.20;;;;;;;19.21;48.22;100254.25;4923802;29;20050;-81
2021/05/26 04:24:55;;;;;;;0.93;0.30;;;;;;;19.20;47.90;100244.59;4921536;29;20501;-81
2021/05/26 04:27:21;;;;;;;1.77;0.35;;;;;;;19.22;48.33;100247.97;4932817;29;20031;-80
2021/05/26 04:29:46;;;;;;;3.70;0.50;;;;;;;19.22;48.51;100250.63;4927176;29;20035;-79
2021/05/26 04:32:11;;;;;;;10.07;2.38;;;;;;;19.20;49.52;100241.94;4931872;29;20729;-81
2021/05/26 04:34:37;;;;;;;24.58;5.72;;;;;;;19.25;54.09;100249.50;4929878;29;20074;-81
2021/05/26 04:37:02;;;;;;;18.70;5.55;;;;;;;19.26;56.22;100252.03;4931635;29;20224;-79
2021/05/26 04:39:27;;;;;;;20.67;5.28;;;;;;;19.26;56.13;100241.38;4923587;29;20027;-79
2021/05/26 04:41:53;;;;;;;22.88;4.63;;;;;;;19.26;54.91;100241.38;4920059;29;20039;-78
2021/05/26 04:44:18;;;;;;;20.63;5.22;;;;;;;19.24;54.47;100229.16;4928000;29;20056;-76
2021/05/26 04:46:43;;;;;;;24.92;5.85;;;;;;;19.27;54.13;100239.56;4926562;29;20058;-83
2021/05/26 04:49:08;;;;;;;17.73;4.13;;;;;;;19.25;53.53;100231.72;4927345;29;20043;-77
2021/05/26 04:51:34;;;;;;;18.05;4.22;;;;;;;19.25;53.20;100226.38;4914945;29;20142;-77
2021/05/26 04:53:59;;;;;;;18.85;4.65;;;;;;;19.26;52.82;100222.72;4909967;29;20031;-77
2021/05/26 04:56:24;;;;;;;13.15;3.70;;;;;;;19.27;52.89;100227.06;4927763;29;20215;-77
2021/05/26 04:58:50;;;;;;;13.80;3.60;;;;;;;19.26;52.64;100228.06;4912248;29;20490;-77
2021/05/26 05:01:16;;;;;;;16.27;3.58;;;;;;;19.27;52.29;100223.56;4929145;29;20066;-78
2021/05/26 05:03:42;;;;;;;18.92;3.53;;;;;;;19.28;52.17;100233.22;4922200;29;20028;-78
2021/05/26 05:06:08;;;;;;;13.52;4.03;;;;;;;19.24;51.71;100226.50;4918965;29;20427;-77
2021/05/26 05:08:33;;;;;;;16.75;3.47;;;;;;;19.28;51.55;100236.75;4907962;29;20087;-78
2021/05/26 05:10:59;;;;;;;16.63;4.00;;;;;;;19.27;51.67;100235.06;4919487;29;20032;-78
2021/05/26 05:13:24;;;;;;;12.82;3.58;;;;;;;19.28;51.30;100234.09;4925318;29;20369;-78
2021/05/26 05:15:49;;;;;;;14.13;3.58;;;;;;;19.29;51.07;100237.59;4924066;29;20075;-77
2021/05/26 05:18:15;;;;;;;10.10;3.35;;;;;;;19.29;51.12;100240.28;4925958;29;20067;-78
2021/05/26 05:20:40;;;;;;;9.00;3.08;;;;;;;19.28;51.22;100236.75;4913369;29;20431;-77
2021/05/26 05:23:05;;;;;;;12.13;2.88;;;;;;;19.30;50.98;100245.44;4917373;29;20464;-78
2021/05/26 05:25:31;;;;;;;11.95;2.92;;;;;;;19.29;50.45;100241.09;4926775;29;20035;-76
2021/05/26 05:27:57;;;;;;;10.98;3.33;;;;;;;19.28;50.90;100235.91;4921635;29;20027;-77
2021/05/26 05:30:23;;;;;;;10.02;3.42;;;;;;;19.25;50.34;100231.72;4928012;29;20035;-77
2021/05/26 05:32:48;;;;;;;8.82;2.42;;;;;;;19.27;50.70;100234.22;4911456;29;20087;-77
2021/05/26 05:35:13;;;;;;;7.35;2.38;;;;;;;19.28;50.70;100228.78;4924423;29;20075;-77
2021/05/26 05:37:39;;;;;;;9.45;2.58;;;;;;;19.23;50.76;100219.50;4910894;29;20071;-77
2021/05/26 05:40:05;;;;;;;9.65;2.22;;;;;;;19.27;50.46;100220.91;4923157;29;20083;-77
2021/05/26 05:42:30;;;;;;;9.07;2.50;;;;;;;19.24;50.61;100224.69;4921611;29;20047;-76
2021/05/26 05:44:56;;;;;;;9.65;2.97;;;;;;;19.28;50.34;100230.56;4916997;29;20467;-77
2021/05/26 05:47:21;;;;;;;12.60;2.58;;;;;;;19.29;50.38;100232.28;4927504;29;20024;-77
2021/05/26 05:49:47;;;;;;;5.22;2.20;;;;;;;19.27;50.04;100228.91;4926405;29;20024;-77
2021/05/26 05:52:12;;;;;;;6.22;1.92;;;;;;;19.25;50.38;100225.50;4909660;29;20035;-76
2021/05/26 05:54:38;;;;;;;7.07;2.05;;;;;;;19.25;49.62;100223.72;4904975;29;20040;-78
2021/05/26 05:57:04;;;;;;;7.53;2.30;;;;;;;19.27;50.15;100223.56;4928908;29;20030;-77
2021/05/26 05:59:29;;;;;;;7.78;1.92;;;;;;;19.24;49.96;100218.50;4927910;29;20475;-78
2021/05/26 06:01:55;;;;;;;9.30;2.00;;;;;;;19.25;50.04;100221.06;4910661;29;20114;-77
2021/05/26 06:04:20;;;;;;;7.75;2.03;;;;;;;19.26;50.02;100214.72;4891753;29;20027;-76
2021/05/26 06:06:46;;;;;;;7.57;2.22;;;;;;;19.24;49.51;100215.84;4926127;29;20111;-75
2021/05/26 06:09:11;;;;;;;7.30;2.30;;;;;;;19.22;50.04;100210.66;4923552;29;20035;-76
2021/05/26 06:11:36;;;;;;;6.50;1.70;;;;;;;19.22;49.66;100205.34;4910954;29;20028;-76
2021/05/26 06:14:05;;;;;;;6.07;2.08;;;;;;;19.26;49.48;100212.06;4927720;29;20381;-76
2021/05/26 06:16:34;;;;;;;5.63;1.80;;;;;;;19.25;50.06;100210.41;4928137;29;20028;-76
2021/05/26 06:18:59;;;;;;;8.43;2.72;;;;;;;19.24;49.41;100206.03;4927082;29;20062;-76
2021/05/26 06:21:25;;;;;;;5.85;1.80;;;;;;;19.22;49.59;100205.34;4926675;29;20055;-76
2021/05/26 06:23:51;;;;;;;8.07;2.20;;;;;;;19.23;49.53;100203.50;4927363;29;20052;-76
2021/05/26 06:26:16;;;;;;;8.85;1.90;;;;;;;19.22;49.41;100199.19;4925613;29;20291;-77
2021/05/26 06:28:41;;;;;;;5.13;1.75;;;;;;;19.22;49.32;100193.84;4926840;29;20578;-76
2021/05/26 06:31:07;;;;;;;6.15;1.85;;;;;;;19.23;49.78;100187.53;4927772;29;20439;-76
2021/05/26 06:33:32;;;;;;;6.53;1.98;;;;;;;19.21;49.39;100192.97;4928060;29;20032;-76
2021/05/26 06:35:57;;;;;;;6.03;1.60;;;;;;;19.21;49.85;100190.31;4909062;29;20070;-76
2021/05/26 06:38:22;;;;;;;4.65;1.83;;;;;;;19.21;49.60;100194.81;4910712;29;20035;-76
2021/05/26 06:40:48;;;;;;;7.90;1.55;;;;;;;19.20;49.43;100196.63;4928473;29;20360;-75
2021/05/26 06:43:13;;;;;;;5.88;2.00;;;;;;;19.22;49.28;100199.19;4926914;29;20063;-76
2021/05/26 06:45:38;;;;;;;5.90;1.65;;;;;;;19.21;49.65;100198.31;4926096;29;20079;-77
2021/05/26 06:48:04;;;;;;;4.55;1.80;;;;;;;19.22;49.53;100199.19;4928111;29;20115;-76
2021/05/26 06:50:29;;;;;;;7.72;2.17;;;;;;;19.21;49.36;100203.63;4927459;29;20411;-76
2021/05/26 06:52:54;;;;;;;5.20;1.52;;;;;;;19.22;49.18;100189.34;4910800;29;20023;-76
2021/05/26 06:55:20;;;;;;;3.03;1.17;;;;;;;19.22;49.64;100193.84;4927648;29;20464;-76
2021/05/26 06:57:46;;;;;;;5.28;1.55;;;;;;;19.23;49.17;100192.84;4926063;29;20023;-76
2021/05/26 07:00:12;;;;;;;5.57;1.40;;;;;;;19.24;49.24;100197.19;4927108;29;20612;-76
2021/05/26 07:02:37;;;;;;;7.55;1.98;;;;;;;19.23;49.48;100198.19;4927078;29;20028;-76
2021/05/26 07:05:03;;;;;;;6.88;1.67;;;;;;;19.22;49.52;100184.03;4926044;29;20471;-76
2021/05/26 07:07:29;;;;;;;5.43;2.17;;;;;;;19.21;49.10;100177.00;4925483;29;20028;-76
2021/05/26 07:09:54;;;;;;;4.88;1.55;;;;;;;19.23;49.26;100190.19;4894266;29;20027;-76
2021/05/26 07:12:19;;;;;;;7.75;1.33;;;;;;;19.23;49.62;100180.38;4927445;29;20028;-75
2021/05/26 07:14:46;;;;;;;5.97;1.38;;;;;;;19.26;49.71;100188.09;4909924;29;20098;-76
2021/05/26 07:17:11;;;;;;;3.92;1.17;;;;;;;19.25;49.37;100181.09;4894473;29;20447;-77
2021/05/26 07:19:37;;;;;;;4.55;1.50;;;;;;;19.25;49.62;100183.75;4926188;29;20034;-76
2021/05/26 07:22:03;;;;;;;5.38;1.20;;;;;;;19.26;49.37;100189.91;4910629;29;20119;-76
2021/05/26 07:24:29;;;;;;;5.55;1.45;;;;;;;19.25;49.13;100181.09;4925101;29;20023;-76
2021/05/26 07:26:54;;;;;;;4.22;1.48;;;;;;;19.25;49.31;100183.75;4927133;29;20063;-76
2021/05/26 07:29:19;;;;;;;5.72;1.42;;;;;;;19.23;49.45;100164.38;4925784;29;20027;-76
2021/05/26 07:31:45;;;;;;;4.18;1.15;;;;;;;19.26;49.01;100173.94;4925660;29;20034;-76
2021/05/26 07:34:10;;;;;;;3.20;1.00;;;;;;;19.24;49.40;100170.56;4910346;29;20070;-76
2021/05/26 07:36:35;;;;;;;4.25;1.17;;;;;;;19.24;49.24;100166.06;4927606;29;20060;-76
2021/05/26 07:39:01;;;;;;;4.70;1.52;;;;;;;19.24;49.25;100170.56;4917137;29;20035;-76
2021/05/26 07:41:27;;;;;;;4.63;1.40;;;;;;;19.26;49.70;100169.44;4926588;29;20030;-76
2021/05/26 07:43:52;;;;;;;2.95;1.00;;;;;;;19.24;49.30;100167.88;4894807;29;20451;-76
2021/05/26 07:46:17;;;;;;;4.00;1.40;;;;;;;19.25;48.79;100172.22;4926038;29;20044;-76
2021/05/26 07:48:43;;;;;;;3.50;0.82;;;;;;;19.25;49.71;100175.75;4922179;29;20095;-76
2021/05/26 07:51:09;;;;;;;1.98;0.90;;;;;;;19.25;49.31;100169.56;4908435;29;20427;-76
2021/05/26 07:53:34;;;;;;;3.80;0.98;;;;;;;19.27;49.38;100159.63;4908423;29;20505;-76
2021/05/26 07:56:00;;;;;;;3.85;1.10;;;;;;;19.26;49.22;100157.94;4924560;29;20029;-76
2021/05/26 07:58:26;;;;;;;3.80;1.08;;;;;;;19.25;49.14;100162.44;4929622;29;20035;-76
2021/05/26 08:00:51;;;;;;;3.33;1.10;;;;;;;19.26;49.11;100158.78;4929234;29;20028;-76
2021/05/26 08:03:16;;;;;;;3.50;1.05;;;;;;;19.24;49.50;100165.22;4913359;29;20031;-76
2021/05/26 08:05:42;;;;;;;3.33;0.80;;;;;;;19.23;49.32;100152.91;4930334;29;20023;-76
2021/05/26 08:08:07;;;;;;;3.80;1.17;;;;;;;19.24;49.03;100159.91;4913457;29;20043;-76
2021/05/26 08:10:32;;;;;;;2.67;0.65;;;;;;;19.26;49.11;100165.94;4913498;29;20031;-76
2021/05/26 08:12:58;;;;;;;3.72;0.90;;;;;;;19.23;49.23;100155.56;4930160;29;20118;-76
2021/05/26 08:15:23;;;;;;;3.45;1.10;;;;;;;19.24;49.17;100159.91;4929905;29;20058;-76
2021/05/26 08:17:48;;;;;;;2.63;1.05;;;;;;;19.26;49.02;100153.47;4931034;29;20427;-77
2021/05/26 08:20:14;;;;;;;2.78;1.00;;;;;;;19.24;49.17;100151.91;4928882;29;20060;-76
2021/05/26 08:22:39;;;;;;;3.53;1.00;;;;;;;19.27;49.38;100159.63;4928481;29;20491;-76
2021/05/26 08:25:05;;;;;;;3.45;1.15;;;;;;;19.26;48.80;100155.28;4930478;29;20027;-75
2021/05/26 08:27:31;;;;;;;3.13;0.80;;;;;;;19.26;48.89;100150.78;4912437;29;20059;-76
2021/05/26 08:29:59;;;;;;;3.20;0.93;;;;;;;19.23;49.34;100156.41;4928548;29;20074;-76
2021/05/26 08:32:25;;;;;;;1.77;0.77;;;;;;;19.24;48.96;100151.91;4928111;29;20036;-76
2021/05/26 08:34:50;;;;;;;2.65;0.82;;;;;;;19.24;49.09;100149.25;4929280;29;20509;-76
2021/05/26 08:37:16;;;;;;;2.15;0.73;;;;;;;19.25;49.37;100151.78;4929405;29;20420;-76
2021/05/26 08:39:41;;;;;;;3.45;0.88;;;;;;;19.23;49.22;100148.41;4929661;29;20023;-76
2021/05/26 08:42:07;;;;;;;2.35;0.98;;;;;;;19.23;49.18;100142.25;4927920;29;20557;-76
2021/05/26 08:44:32;;;;;;;3.22;0.82;;;;;;;19.23;48.82;100142.25;4929860;29;20102;-76
2021/05/26 08:46:58;;;;;;;2.38;0.90;;;;;;;19.24;49.43;100147.41;4929200;29;20482;-76
2021/05/26 08:49:23;;;;;;;4.38;1.05;;;;;;;19.22;49.00;100135.25;4927996;29;20059;-76
2021/05/26 08:51:49;;;;;;;3.08;1.00;;;;;;;19.23;49.08;100132.41;4927229;29;20035;-76
2021/05/26 08:54:17;;;;;;;3.13;0.95;;;;;;;19.25;49.38;100138.47;4928949;29;20031;-76
2021/05/26 08:56:44;;;;;;;2.33;0.85;;;;;;;19.21;49.24;100131.72;4927819;29;20035;-76
2021/05/26 08:59:09;;;;;;;2.10;0.80;;;;;;;19.26;49.23;100140.13;4929593;29;20031;-76
2021/05/26 09:01:35;;;;;;;2.30;1.25;;;;;;;19.26;49.62;100137.47;4929504;29;20110;-76
2021/05/26 09:04:35;;;;;;;2.63;0.80;;;;;;;19.27;49.27;100136.47;4922408;29;20436;-76
2021/05/26 09:07:12;;;;;;;1.38;0.98;;;;;;;19.25;49.36;100138.47;4910150;29;20056;-76
2021/05/26 09:09:58;;;;;;;2.55;0.95;;;;;;;19.26;49.13;100136.63;4909819;29;20028;-76
2021/05/26 09:12:44;;;;;;;4.65;1.00;;;;;;;19.28;49.45;100145.31;4910241;29;20034;-76
2021/05/26 09:15:13;;;;;;;2.28;0.70;;;;;;;19.25;49.00;100130.47;4921521;29;20135;-76
2021/05/26 09:17:39;;;;;;;;;;;;;;;19.29;48.99;100133.69;4929056;29;20024;-77
2021/05/26 09:20:22;;;;;;;3.45;0.70;;;;;;;19.28;49.07;100127.53;4929889;29;19910;-76
2021/05/26 09:23:10;;;;;;;1.95;0.88;;;;;;;19.28;48.92;100131.97;4930271;29;20063;-76
2021/05/26 09:25:44;;;;;;;2.78;1.10;;;;;;;19.28;49.46;100130.19;4927851;29;20031;-76
2021/05/26 09:28:14;;;;;;;1.63;0.80;;;;;;;19.29;49.30;100136.34;4929309;29;20031;-76
2021/05/26 09:30:39;;;;;;;1.52;0.75;;;;;;;19.27;49.27;100135.63;4928799;29;20019;-76
2021/05/26 09:33:28;;;;;;;1.70;0.77;;;;;;;19.27;49.13;100144.47;4929657;29;20024;-76
2021/05/26 09:36:20;;;;;;;1.27;0.60;;;;;;;19.26;49.54;100141.97;4919443;29;20115;-77
2021/05/26 09:38:48;;;;;;;2.47;1.02;;;;;;;19.26;49.07;100133.97;4910032;29;20112;-76
2021/05/26 09:41:16;;;;;;;2.80;0.93;;;;;;;19.29;48.97;100137.19;4910282;29;20506;-76
2021/05/26 09:43:55;;;;;;;1.83;0.70;;;;;;;19.28;49.33;100138.19;4892884;29;20338;-76
2021/05/26 09:46:26;;;;;;;;;;;;;;;19.25;49.20;100133.13;4911879;29;20032;-76
2021/05/26 09:49:13;;;;;;;1.95;0.75;;;;;;;19.30;48.76;100132.69;4910128;29;19927;-76
2021/05/26 09:51:50;;;;;;;3.42;0.93;;;;;;;19.28;49.34;100126.66;4909329;29;20036;-76
2021/05/26 09:54:23;;;;;;;1.77;0.63;;;;;;;19.28;48.90;100130.19;4909800;29;20024;-75
2021/05/26 09:57:12;;;;;;;2.13;0.80;;;;;;;19.29;48.97;100133.69;4925797;29;20032;-76
2021/05/26 09:59:40;;;;;;;1.88;0.77;;;;;;;19.27;49.14;100125.81;4927085;29;20126;-76
2021/05/26 10:02:07;;;;;;;2.58;0.88;;;;;;;19.27;49.02;100123.16;4929368;29;20360;-77
2021/05/26 10:04:32;;;;;;;1.95;0.57;;;;;;;19.28;49.54;100122.19;4928959;29;20623;-76
2021/05/26 10:06:59;;;;;;;1.23;0.57;;;;;;;19.29;49.29;100129.19;4928602;29;20027;-76
2021/05/26 10:09:25;;;;;;;1.48;0.60;;;;;;;19.27;49.18;100119.66;4927107;29;20684;-76
2021/05/26 10:11:53;;;;;;;2.50;0.80;;;;;;;19.29;49.45;100123.88;4927483;29;20063;-76
2021/05/26 10:14:18;;;;;;;2.03;0.70;;;;;;;19.30;49.07;100122.03;4928501;29;20064;-76
2021/05/26 10:16:44;;;;;;;2.92;0.90;;;;;;;19.28;49.19;100129.31;4895548;29;20090;-77
2021/05/26 10:19:10;;;;;;;1.73;0.70;;;;;;;19.29;49.11;100136.34;4926972;29;20024;-76
2021/05/26 10:21:36;;;;;;;2.20;0.85;;;;;;;19.31;49.17;100129.03;4911002;29;20027;-76
2021/05/26 10:24:06;;;;;;;1.55;0.65;;;;;;;19.27;49.03;100127.66;4911643;29;20031;-76
2021/05/26 10:26:46;;;;;;;;;;;;;;;19.30;49.01;100122.88;4927909;29;20031;-75
2021/05/26 10:29:29;;;;;;;1.45;0.70;;;;;;;19.30;49.37;100112.22;4928155;29;20555;-76
2021/05/26 10:32:09;;;;;;;2.30;0.90;;;;;;;19.29;49.14;100105.22;4928325;29;20031;-76
2021/05/26 10:34:48;;;;;;;1.88;0.68;;;;;;;19.30;49.45;100104.22;4926824;29;20087;-76
2021/05/26 10:37:24;;;;;;;2.60;0.68;;;;;;;19.31;48.97;100097.06;4928260;29;20078;-76
2021/05/26 10:39:50;;;;;;;1.60;0.88;;;;;;;19.30;49.27;100098.91;4928595;29;20111;-76
2021/05/26 10:42:28;;;;;;;1.77;0.60;;;;;;;19.31;49.08;100100.56;4928077;29;20431;-77
2021/05/26 10:44:58;;;;;;;1.43;0.60;;;;;;;19.31;49.46;100081.06;4926845;29;20471;-76
2021/05/26 10:47:35;;;;;;;1.35;0.60;;;;;;;19.31;48.83;100081.91;4927441;29;20451;-76
2021/05/26 10:50:00;;;;;;;1.15;0.60;;;;;;;19.32;49.19;100088.13;4928339;29;20028;-76
2021/05/26 10:52:26;;;;;;;1.30;0.63;;;;;;;19.30;48.89;100077.56;4928322;29;20748;-76
2021/05/26 10:54:51;;;;;;;1.42;0.70;;;;;;;19.32;49.34;100088.13;4927191;29;20020;-76
2021/05/26 10:57:16;;;;;;;1.40;0.60;;;;;;;19.29;49.32;100075.91;4922539;29;20035;-76
2021/05/26 11:00:20;;;;;;;1.42;0.63;;;;;;;19.32;49.48;100077.44;4908053;29;20087;-76
2021/05/26 11:02:45;;;;;;;2.15;0.80;;;;;;;19.28;48.93;100074.25;4908987;29;20060;-77
2021/05/26 11:05:32;;;;;;;1.95;0.80;;;;;;;19.32;49.24;100080.94;4909227;29;20028;-76
2021/05/26 11:08:27;;;;;;;1.45;0.68;;;;;;;19.33;49.39;100092.44;4907405;29;20036;-76
2021/05/26 11:10:53;;;;;;;1.77;0.70;;;;;;;19.32;49.17;100090.78;4909876;29;20047;-76
2021/05/26 11:13:18;;;;;;;1.77;0.73;;;;;;;19.31;48.75;100081.91;4891914;29;20499;-76
2021/05/26 11:15:44;;;;;;;1.75;0.70;;;;;;;19.30;48.98;100080.25;4907952;29;20024;-76
2021/05/26 11:18:28;;;;;;;2.17;0.70;;;;;;;19.32;48.98;100080.94;4907980;29;20024;-76
2021/05/26 11:20:54;;;;;;;1.13;0.50;;;;;;;19.32;49.31;100080.13;4908533;29;20111;-76
2021/05/26 11:23:19;;;;;;;3.90;1.10;;;;;;;19.32;48.89;100090.78;4910330;29;20115;-76
2021/05/26 11:25:52;;;;;;;2.25;0.70;;;;;;;19.33;49.57;100095.13;4917420;29;20078;-76
2021/05/26 11:28:29;;;;;;;0.95;0.32;;;;;;;19.33;49.00;100092.44;4928350;29;20065;-76